Necedah, Wisconsin
Current Conditions -  °F | °C
As of 10:58 PM on Thursday 30 Oct 2014 (Local Time) from KVOK Reporting Station
Overcast Overcast  
Wind Chill: 35°   Ceiling: 6000
Heat Index: 41°   Visibility: 10mi
Dew Point: 34°   Wind: 10mph
Humidity: 76%   Direction: 310°NW
Pressure: 30.11"   Gusts: NA
Location:  44.03°N, 90.07°W
Report Text: KVOK 310358Z AUTO 31009KT 10SM FEW035 OVC060 05/01 A3011 RMK AO2 SLP205 T00520012
Loading
Personal Weather Stations






























Interactive Weather Map New forecast layout! Learn more

10-Day Weather Forecast

Advertisements
Track Severe Weather on mobile